Time;durP1;ratioP1;P1;durP2;ratioP2;P2;SDS_P1;SDS_P2;PMS_P1;PMS_P2;Temp;Humidity;BMP_temperature;BMP_pressure;BME280_temperature;BME280_humidity;BME280_pressure;Samples;Min_cycle;Max_cycle;Signal;HPM_P1;HPM_P2
2022/03/16 00:01:50;;;;;;;7.50;3.85;;;;;;;;;;5008766;28;20789;-72
2022/03/16 00:04:16;;;;;;;7.78;4.13;;;;;;;;;;5005862;28;20408;-72
2022/03/16 00:06:42;;;;;;;5.68;4.03;;;;;;;;;;5007064;28;20037;-72
2022/03/16 00:09:08;;;;;;;5.47;3.95;;;;;;;;;;5005928;28;20063;-71
2022/03/16 00:11:34;;;;;;;7.28;4.22;;;;;;;;;;5008349;28;20036;-72
2022/03/16 00:14:01;;;;;;;7.25;5.28;;;;;;;;;;4990798;28;20072;-72
2022/03/16 00:16:27;;;;;;;6.85;4.57;;;;;;;;;;5009523;28;20029;-72
2022/03/16 00:18:53;;;;;;;10.50;4.85;;;;;;;;;;5008032;28;20038;-72
2022/03/16 00:21:19;;;;;;;4.90;3.92;;;;;;;;;;5008412;28;20018;-70
2022/03/16 00:23:45;;;;;;;11.05;4.63;;;;;;;;;;5006957;28;20030;-71
2022/03/16 00:26:11;;;;;;;5.63;3.85;;;;;;;;;;5008115;28;20030;-71
2022/03/16 00:28:37;;;;;;;7.35;3.55;;;;;;;;;;5009939;28;20455;-71
2022/03/16 00:31:03;;;;;;;6.47;4.03;;;;;;;;;;5006803;28;20033;-71
2022/03/16 00:33:29;;;;;;;6.10;3.78;;;;;;;;;;5006554;28;20041;-71
2022/03/16 00:35:55;;;;;;;5.88;3.28;;;;;;;;;;5004827;28;20415;-71
2022/03/16 00:38:21;;;;;;;5.22;3.00;;;;;;;;;;4993408;28;20111;-70
2022/03/16 00:40:47;;;;;;;6.25;3.10;;;;;;;;;;5010083;28;20149;-71
2022/03/16 00:43:14;;;;;;;6.18;2.75;;;;;;;;;;5005957;28;20571;-71
2022/03/16 00:45:40;;;;;;;4.40;2.33;;;;;;;;;;5010783;28;20030;-71
2022/03/16 00:48:06;;;;;;;2.33;2.10;;;;;;;;;;5008198;28;20491;-71
2022/03/16 00:50:34;;;;;;;2.55;2.13;;;;;;;;;;5011172;28;20185;-70
2022/03/16 00:53:00;;;;;;;5.40;2.55;;;;;;;;;;5010502;28;20042;-70
2022/03/16 00:55:26;;;;;;;8.25;2.35;;;;;;;;;;5009128;28;20026;-70
2022/03/16 00:57:52;;;;;;;3.55;2.33;;;;;;;;;;5010045;28;20050;-71
2022/03/16 01:00:18;;;;;;;3.35;2.45;;;;;;;;;;5009237;28;20030;-71
2022/03/16 01:02:44;;;;;;;4.88;2.38;;;;;;;;;;5009247;28;20038;-71
2022/03/16 01:05:11;;;;;;;8.50;2.85;;;;;;;;;;5010392;28;20026;-72
2022/03/16 01:07:37;;;;;;;5.20;2.20;;;;;;;;;;5009786;28;20025;-70
2022/03/16 01:10:03;;;;;;;3.25;2.55;;;;;;;;;;5012251;28;20069;-72
2022/03/16 01:12:29;;;;;;;5.43;2.72;;;;;;;;;;5008732;28;20064;-71
2022/03/16 01:14:55;;;;;;;3.83;2.40;;;;;;;;;;5010645;28;20025;-71
2022/03/16 01:17:21;;;;;;;3.33;2.17;;;;;;;;;;5009658;28;20128;-71
2022/03/16 01:19:47;;;;;;;2.90;2.17;;;;;;;;;;5009698;28;20057;-72
2022/03/16 01:22:14;;;;;;;4.55;2.45;;;;;;;;;;5007410;28;20108;-71
2022/03/16 01:24:40;;;;;;;3.35;2.63;;;;;;;;;;5009469;28;20018;-71
2022/03/16 01:27:06;;;;;;;3.83;2.50;;;;;;;;;;5010408;28;20053;-71
2022/03/16 01:29:32;;;;;;;5.75;2.95;;;;;;;;;;5012345;28;20105;-71
2022/03/16 01:31:58;;;;;;;3.80;2.72;;;;;;;;;;5007746;28;20034;-71
2022/03/16 01:34:25;;;;;;;6.80;3.22;;;;;;;;;;5010242;28;20459;-70
2022/03/16 01:36:51;;;;;;;3.53;3.00;;;;;;;;;;5009638;28;20392;-71
2022/03/16 01:39:17;;;;;;;5.28;2.72;;;;;;;;;;5010993;28;20143;-71
2022/03/16 01:41:43;;;;;;;3.97;2.55;;;;;;;;;;5008667;28;20038;-72
2022/03/16 01:44:09;;;;;;;4.70;2.78;;;;;;;;;;5010378;28;20087;-72
2022/03/16 01:46:36;;;;;;;4.53;2.78;;;;;;;;;;5008458;28;20034;-72
2022/03/16 01:49:03;;;;;;;4.00;2.55;;;;;;;;;;5010699;28;20026;-71
2022/03/16 01:51:29;;;;;;;5.25;2.90;;;;;;;;;;5007492;28;20395;-71
2022/03/16 01:53:55;;;;;;;5.13;2.97;;;;;;;;;;5011717;28;20153;-71
2022/03/16 01:56:22;;;;;;;4.10;2.53;;;;;;;;;;4993011;28;20480;-71
2022/03/16 01:58:48;;;;;;;7.80;2.70;;;;;;;;;;5010152;28;20531;-71
2022/03/16 02:01:14;;;;;;;3.88;2.67;;;;;;;;;;5008708;28;20395;-71
2022/03/16 02:03:41;;;;;;;3.75;2.67;;;;;;;;;;5008530;28;20415;-71
2022/03/16 02:06:08;;;;;;;4.07;2.70;;;;;;;;;;5013116;28;20038;-71
2022/03/16 02:08:36;;;;;;;5.30;3.20;;;;;;;;;;5008257;28;20030;-71
2022/03/16 02:11:02;;;;;;;6.35;3.75;;;;;;;;;;5007964;28;20030;-71
2022/03/16 02:13:28;;;;;;;5.80;3.70;;;;;;;;;;5009715;28;20087;-71
2022/03/16 02:15:54;;;;;;;4.40;3.00;;;;;;;;;;5007939;28;20034;-70
2022/03/16 02:18:20;;;;;;;4.82;3.30;;;;;;;;;;5008938;28;20050;-71
2022/03/16 02:20:50;;;;;;;4.95;3.20;;;;;;;;;;5009416;28;20026;-71
2022/03/16 02:23:16;;;;;;;6.32;3.40;;;;;;;;;;5006381;28;20022;-70
2022/03/16 02:25:52;;;;;;;7.07;3.65;;;;;;;;;;5008453;28;20026;-72
2022/03/16 02:28:18;;;;;;;6.43;3.70;;;;;;;;;;5008612;28;20030;-71
2022/03/16 02:30:45;;;;;;;8.57;3.88;;;;;;;;;;5008405;28;20087;-71
2022/03/16 02:33:11;;;;;;;5.47;3.65;;;;;;;;;;5009921;28;20649;-71
2022/03/16 02:35:37;;;;;;;4.95;3.72;;;;;;;;;;5003559;28;20068;-72
2022/03/16 02:38:04;;;;;;;5.65;3.55;;;;;;;;;;5006980;28;20141;-70
2022/03/16 02:40:30;;;;;;;5.00;3.70;;;;;;;;;;5005774;28;20036;-70
2022/03/16 02:42:56;;;;;;;6.22;4.70;;;;;;;;;;5006384;28;20018;-71
2022/03/16 02:45:22;;;;;;;8.15;4.18;;;;;;;;;;5009466;28;20038;-70
2022/03/16 02:47:48;;;;;;;7.25;3.83;;;;;;;;;;5009525;28;20029;-70
2022/03/16 02:50:16;;;;;;;6.10;4.05;;;;;;;;;;5006896;28;20034;-71
2022/03/16 02:52:43;;;;;;;8.18;3.78;;;;;;;;;;5004023;28;20018;-71
2022/03/16 02:55:09;;;;;;;6.15;3.60;;;;;;;;;;5007750;28;20395;-71
2022/03/16 02:57:35;;;;;;;6.65;3.75;;;;;;;;;;5006229;28;20080;-71
2022/03/16 03:00:02;;;;;;;5.53;3.92;;;;;;;;;;5007939;28;20030;-71
2022/03/16 03:02:28;;;;;;;6.72;4.80;;;;;;;;;;5008496;28;20021;-70
2022/03/16 03:04:54;;;;;;;5.05;4.13;;;;;;;;;;5005721;28;20080;-71
2022/03/16 03:07:20;;;;;;;6.18;4.10;;;;;;;;;;5007841;28;20042;-71
2022/03/16 03:09:46;;;;;;;6.90;4.55;;;;;;;;;;5005075;28;20091;-71
2022/03/16 03:12:12;;;;;;;6.53;4.03;;;;;;;;;;5008463;28;20511;-71
2022/03/16 03:14:38;;;;;;;5.75;3.47;;;;;;;;;;5007002;28;20083;-71
2022/03/16 03:17:04;;;;;;;5.63;3.60;;;;;;;;;;5009591;28;20014;-71
2022/03/16 03:19:31;;;;;;;4.38;3.40;;;;;;;;;;5006769;28;20028;-70
2022/03/16 03:21:57;;;;;;;6.97;4.00;;;;;;;;;;5007180;28;20037;-70
2022/03/16 03:24:23;;;;;;;4.68;3.60;;;;;;;;;;5006384;28;20566;-70
2022/03/16 03:26:49;;;;;;;8.93;3.92;;;;;;;;;;5009130;28;20029;-70
2022/03/16 03:29:15;;;;;;;4.00;3.30;;;;;;;;;;5008160;28;20431;-71
2022/03/16 03:31:42;;;;;;;6.78;3.33;;;;;;;;;;5005521;28;20395;-70
2022/03/16 03:34:08;;;;;;;6.47;3.95;;;;;;;;;;5007598;28;20026;-70
2022/03/16 03:36:34;;;;;;;4.43;3.75;;;;;;;;;;5008353;28;20097;-70
2022/03/16 03:39:00;;;;;;;6.90;3.80;;;;;;;;;;5007253;28;20049;-71
2022/03/16 03:41:26;;;;;;;9.63;4.25;;;;;;;;;;5004464;28;20036;-71
2022/03/16 03:43:53;;;;;;;6.65;3.30;;;;;;;;;;4986151;28;21029;-70
2022/03/16 03:46:19;;;;;;;6.75;3.70;;;;;;;;;;5002635;28;20388;-70
2022/03/16 03:48:45;;;;;;;6.40;3.92;;;;;;;;;;5007181;28;20049;-71
2022/03/16 03:51:11;;;;;;;5.13;3.47;;;;;;;;;;5005962;28;20030;-71
2022/03/16 03:53:37;;;;;;;6.43;3.58;;;;;;;;;;5006792;28;20030;-70
2022/03/16 03:56:03;;;;;;;6.05;4.03;;;;;;;;;;5005534;28;20108;-71
2022/03/16 03:58:29;;;;;;;6.70;3.25;;;;;;;;;;5007730;28;20068;-71
2022/03/16 04:00:57;;;;;;;5.65;3.47;;;;;;;;;;5007316;28;20038;-72
2022/03/16 04:03:23;;;;;;;8.05;3.65;;;;;;;;;;5007210;28;20058;-72
2022/03/16 04:05:49;;;;;;;6.80;3.50;;;;;;;;;;5008143;28;20034;-71
2022/03/16 04:08:16;;;;;;;7.50;3.78;;;;;;;;;;4988248;28;20057;-71
2022/03/16 04:10:42;;;;;;;8.30;3.83;;;;;;;;;;5005932;28;20743;-70
2022/03/16 04:13:08;;;;;;;4.45;3.55;;;;;;;;;;5006436;28;20018;-71
2022/03/16 04:15:34;;;;;;;6.70;3.60;;;;;;;;;;5008520;28;20026;-72
2022/03/16 04:18:00;;;;;;;8.10;3.72;;;;;;;;;;5005327;28;20038;-71
2022/03/16 04:20:27;;;;;;;6.28;3.50;;;;;;;;;;5004957;28;20510;-72
2022/03/16 04:22:53;;;;;;;8.70;3.20;;;;;;;;;;5007552;28;20058;-71
2022/03/16 04:25:19;;;;;;;5.72;3.55;;;;;;;;;;5006014;28;20487;-71
2022/03/16 04:27:45;;;;;;;5.60;3.58;;;;;;;;;;5008118;28;20084;-71
2022/03/16 04:30:11;;;;;;;8.40;3.30;;;;;;;;;;4989801;28;20084;-71
2022/03/16 04:32:37;;;;;;;6.30;3.72;;;;;;;;;;5007488;28;20025;-71
2022/03/16 04:35:04;;;;;;;6.97;3.25;;;;;;;;;;5007202;28;20118;-71
2022/03/16 04:37:30;;;;;;;5.82;3.45;;;;;;;;;;5004173;28;20033;-71
2022/03/16 04:39:56;;;;;;;5.75;3.78;;;;;;;;;;5007557;28;20492;-71
2022/03/16 04:42:22;;;;;;;7.57;4.57;;;;;;;;;;5006236;28;20030;-71
2022/03/16 04:44:48;;;;;;;10.48;4.28;;;;;;;;;;5003913;28;20108;-71
2022/03/16 04:47:14;;;;;;;4.90;3.67;;;;;;;;;;5005860;28;20022;-71
2022/03/16 04:49:40;;;;;;;9.90;4.35;;;;;;;;;;5007572;28;20907;-71
2022/03/16 04:52:06;;;;;;;9.82;4.68;;;;;;;;;;5005328;28;20034;-71
2022/03/16 04:54:33;;;;;;;5.40;4.32;;;;;;;;;;5005920;28;20030;-70
2022/03/16 04:56:59;;;;;;;6.60;4.45;;;;;;;;;;5005379;28;20068;-70
2022/03/16 04:59:25;;;;;;;8.73;5.25;;;;;;;;;;5004685;28;20109;-70
2022/03/16 05:01:51;;;;;;;12.35;5.00;;;;;;;;;;5006360;28;20558;-71
2022/03/16 05:04:17;;;;;;;9.20;5.03;;;;;;;;;;5007900;28;20038;-70
2022/03/16 05:06:43;;;;;;;8.15;5.05;;;;;;;;;;5010155;28;20045;-72
2022/03/16 05:09:09;;;;;;;9.25;5.13;;;;;;;;;;5009295;28;20037;-71
2022/03/16 05:11:36;;;;;;;7.32;5.15;;;;;;;;;;5004654;28;20053;-71
2022/03/16 05:14:02;;;;;;;11.80;6.18;;;;;;;;;;4988699;28;20396;-71
2022/03/16 05:16:28;;;;;;;9.40;5.70;;;;;;;;;;5007180;28;20112;-71
2022/03/16 05:18:54;;;;;;;10.27;5.80;;;;;;;;;;4993553;28;20502;-71
2022/03/16 05:21:20;;;;;;;7.15;5.63;;;;;;;;;;5001249;28;20058;-72
2022/03/16 05:23:46;;;;;;;9.50;6.22;;;;;;;;;;4988426;28;20073;-70
2022/03/16 05:26:12;;;;;;;9.18;5.30;;;;;;;;;;5009456;28;20030;-72
2022/03/16 05:28:38;;;;;;;9.13;5.75;;;;;;;;;;5011697;28;20034;-71
2022/03/16 05:31:04;;;;;;;6.43;5.35;;;;;;;;;;5009404;28;20034;-70
2022/03/16 05:33:30;;;;;;;9.70;5.13;;;;;;;;;;5008657;28;20357;-70
2022/03/16 05:35:57;;;;;;;8.55;5.82;;;;;;;;;;5007307;28;20057;-71
2022/03/16 05:38:23;;;;;;;10.43;5.85;;;;;;;;;;5009063;28;20069;-71
2022/03/16 05:40:49;;;;;;;10.63;5.97;;;;;;;;;;5009522;28;20026;-71
2022/03/16 05:43:15;;;;;;;7.47;5.28;;;;;;;;;;5007029;28;20137;-71
2022/03/16 05:45:41;;;;;;;7.00;5.25;;;;;;;;;;5008368;28;20068;-70
2022/03/16 05:48:07;;;;;;;13.00;6.25;;;;;;;;;;5010922;28;20173;-70
2022/03/16 05:50:33;;;;;;;9.32;5.53;;;;;;;;;;5007783;28;20038;-70
2022/03/16 05:53:00;;;;;;;9.02;5.68;;;;;;;;;;4992589;28;20029;-70
2022/03/16 05:55:26;;;;;;;9.63;6.15;;;;;;;;;;5009771;28;20084;-71
2022/03/16 05:57:53;;;;;;;9.88;6.20;;;;;;;;;;5007177;28;20057;-72
2022/03/16 06:00:19;;;;;;;9.45;5.50;;;;;;;;;;5009868;28;20091;-71
2022/03/16 06:02:46;;;;;;;8.55;5.95;;;;;;;;;;5009276;28;20560;-71
2022/03/16 06:05:12;;;;;;;8.15;5.20;;;;;;;;;;5004838;28;20058;-71
2022/03/16 06:07:38;;;;;;;10.98;5.95;;;;;;;;;;5009241;28;20026;-71
2022/03/16 06:10:06;;;;;;;9.18;5.50;;;;;;;;;;5005201;28;20671;-70
2022/03/16 06:12:32;;;;;;;13.50;6.78;;;;;;;;;;5006607;28;20101;-72
2022/03/16 06:14:58;;;;;;;8.25;5.78;;;;;;;;;;5010949;28;20037;-71
2022/03/16 06:17:24;;;;;;;8.82;6.18;;;;;;;;;;5009597;28;20113;-71
2022/03/16 06:19:50;;;;;;;8.90;5.63;;;;;;;;;;5009433;28;20480;-71
2022/03/16 06:22:16;;;;;;;11.48;5.57;;;;;;;;;;4991344;28;20083;-70
2022/03/16 06:24:42;;;;;;;11.35;5.95;;;;;;;;;;5007849;28;20033;-70
2022/03/16 06:27:08;;;;;;;11.13;5.57;;;;;;;;;;5008531;28;20033;-71
2022/03/16 06:29:34;;;;;;;10.90;5.78;;;;;;;;;;5011216;28;20026;-70
2022/03/16 06:32:00;;;;;;;11.50;6.50;;;;;;;;;;5007025;28;20434;-70
2022/03/16 06:34:26;;;;;;;7.72;5.47;;;;;;;;;;5011997;28;20026;-71
2022/03/16 06:36:53;;;;;;;9.88;5.32;;;;;;;;;;5007974;28;20026;-72
2022/03/16 06:39:19;;;;;;;9.32;6.25;;;;;;;;;;5008443;28;20053;-71
2022/03/16 06:41:45;;;;;;;9.73;6.25;;;;;;;;;;5007544;28;20040;-70
2022/03/16 06:44:11;;;;;;;8.52;5.32;;;;;;;;;;5009615;28;20531;-72
2022/03/16 06:46:37;;;;;;;9.45;5.43;;;;;;;;;;5010159;28;20029;-71
2022/03/16 06:49:04;;;;;;;7.35;5.13;;;;;;;;;;5009414;28;20517;-71
2022/03/16 06:51:30;;;;;;;8.10;4.93;;;;;;;;;;5005861;28;20119;-71
2022/03/16 06:53:56;;;;;;;10.05;5.68;;;;;;;;;;5009864;28;20112;-71
2022/03/16 06:56:22;;;;;;;10.07;5.32;;;;;;;;;;5006977;28;20379;-71
2022/03/16 06:58:49;;;;;;;14.38;5.90;;;;;;;;;;5007168;28;20080;-71
2022/03/16 07:01:15;;;;;;;7.25;5.18;;;;;;;;;;5007760;28;20064;-71
2022/03/16 07:03:43;;;;;;;9.32;4.90;;;;;;;;;;5000543;28;20037;-71
2022/03/16 07:06:10;;;;;;;9.35;5.43;;;;;;;;;;5005384;28;20021;-71
2022/03/16 07:08:36;;;;;;;12.13;5.63;;;;;;;;;;5006127;28;20026;-71
2022/03/16 07:11:02;;;;;;;10.93;5.70;;;;;;;;;;5005248;28;20468;-71
2022/03/16 07:13:28;;;;;;;10.18;5.47;;;;;;;;;;5003160;28;20022;-71
2022/03/16 07:15:54;;;;;;;11.80;5.43;;;;;;;;;;5007182;28;21550;-70
2022/03/16 07:18:23;;;;;;;8.68;5.30;;;;;;;;;;5007762;28;20026;-71
2022/03/16 07:20:49;;;;;;;9.50;5.45;;;;;;;;;;4990936;28;20547;-71
2022/03/16 07:23:17;;;;;;;10.15;5.00;;;;;;;;;;5001989;28;20135;-70
2022/03/16 07:25:47;;;;;;;11.23;5.30;;;;;;;;;;5001240;28;20045;-71
2022/03/16 07:28:13;;;;;;;12.48;5.72;;;;;;;;;;5003444;28;20556;-71
2022/03/16 07:30:39;;;;;;;7.90;4.88;;;;;;;;;;5003229;28;20750;-70
2022/03/16 07:33:06;;;;;;;11.18;5.32;;;;;;;;;;5005057;28;20029;-71
2022/03/16 07:35:32;;;;;;;5.60;4.82;;;;;;;;;;5006473;28;20033;-70
2022/03/16 07:38:02;;;;;;;17.52;5.25;;;;;;;;;;5005137;28;20026;-71
2022/03/16 07:40:30;;;;;;;9.95;5.28;;;;;;;;;;4981280;28;20563;-71
2022/03/16 07:42:56;;;;;;;8.43;5.10;;;;;;;;;;5002318;28;20022;-70
2022/03/16 07:45:23;;;;;;;8.88;5.22;;;;;;;;;;5006562;28;20392;-71
2022/03/16 07:47:50;;;;;;;10.05;5.18;;;;;;;;;;5007301;28;20030;-71
2022/03/16 07:50:17;;;;;;;10.30;5.70;;;;;;;;;;5007600;28;20302;-71
2022/03/16 07:52:44;;;;;;;8.45;4.95;;;;;;;;;;5013260;28;20683;-71
2022/03/16 07:55:10;;;;;;;9.88;6.00;;;;;;;;;;4985982;28;20014;-71
2022/03/16 07:57:36;;;;;;;11.35;5.60;;;;;;;;;;5006476;28;20026;-71
2022/03/16 08:00:07;;;;;;;10.23;5.63;;;;;;;;;;5005141;28;20053;-71
2022/03/16 08:02:33;;;;;;;12.10;5.57;;;;;;;;;;4991272;28;20030;-71
2022/03/16 08:05:00;;;;;;;10.07;5.13;;;;;;;;;;5008689;28;20383;-70
2022/03/16 08:07:29;;;;;;;7.95;5.45;;;;;;;;;;5008311;28;20541;-71
2022/03/16 08:09:56;;;;;;;8.63;4.93;;;;;;;;;;5007217;28;20041;-71
2022/03/16 08:12:22;;;;;;;9.13;5.40;;;;;;;;;;5006685;28;20534;-71
2022/03/16 08:14:48;;;;;;;5.93;4.93;;;;;;;;;;5003796;28;20026;-71
2022/03/16 08:17:14;;;;;;;10.90;6.28;;;;;;;;;;5001331;28;20116;-71
2022/03/16 08:19:40;;;;;;;8.80;5.88;;;;;;;;;;5001878;28;20138;-71
2022/03/16 08:22:06;;;;;;;8.75;5.00;;;;;;;;;;5000488;28;20034;-72
2022/03/16 08:24:33;;;;;;;11.02;5.97;;;;;;;;;;5002117;28;20683;-71
2022/03/16 08:26:59;;;;;;;15.32;5.40;;;;;;;;;;5003417;28;20030;-71
2022/03/16 08:29:25;;;;;;;8.93;5.00;;;;;;;;;;5002050;28;20037;-72
2022/03/16 08:31:51;;;;;;;7.53;5.20;;;;;;;;;;5002830;28;20768;-71
2022/03/16 08:34:18;;;;;;;9.30;5.63;;;;;;;;;;5000570;28;20046;-71
2022/03/16 08:36:44;;;;;;;7.90;5.38;;;;;;;;;;5004347;28;20076;-70
2022/03/16 08:39:10;;;;;;;6.65;4.45;;;;;;;;;;5005393;28;20045;-71
2022/03/16 08:41:37;;;;;;;7.40;4.78;;;;;;;;;;5002449;28;20032;-70
2022/03/16 08:44:03;;;;;;;9.85;4.78;;;;;;;;;;5000315;28;20034;-70
2022/03/16 08:46:30;;;;;;;6.22;4.93;;;;;;;;;;5003930;28;20038;-71
2022/03/16 08:48:56;;;;;;;16.63;4.60;;;;;;;;;;5005195;28;20034;-71
2022/03/16 08:51:22;;;;;;;8.25;4.40;;;;;;;;;;4999385;28;20412;-71
2022/03/16 08:53:49;;;;;;;6.93;4.82;;;;;;;;;;5003042;28;20026;-72
2022/03/16 08:56:16;;;;;;;6.95;4.57;;;;;;;;;;4998116;28;20026;-71
2022/03/16 08:58:42;;;;;;;6.25;3.80;;;;;;;;;;5006581;28;20448;-72
2022/03/16 09:01:08;;;;;;;5.45;3.97;;;;;;;;;;5007014;28;20040;-71
2022/03/16 09:03:34;;;;;;;7.07;4.35;;;;;;;;;;5004318;28;20049;-72
2022/03/16 09:06:01;;;;;;;5.93;4.13;;;;;;;;;;5003621;28;20028;-71
2022/03/16 09:08:27;;;;;;;6.50;4.28;;;;;;;;;;4996710;28;20064;-72
2022/03/16 09:10:55;;;;;;;6.70;4.78;;;;;;;;;;4980652;28;20034;-72
2022/03/16 09:13:21;;;;;;;6.75;4.03;;;;;;;;;;5008072;28;20022;-72
2022/03/16 09:15:49;;;;;;;5.38;3.75;;;;;;;;;;5009091;28;20436;-72
2022/03/16 09:18:15;;;;;;;8.10;3.53;;;;;;;;;;5003006;28;20033;-72
2022/03/16 09:20:41;;;;;;;6.95;5.18;;;;;;;;;;5005950;28;20044;-71
2022/03/16 09:23:09;;;;;;;8.98;4.38;;;;;;;;;;5003832;28;20068;-71
2022/03/16 09:25:35;;;;;;;6.95;3.60;;;;;;;;;;5006326;28;20074;-72
2022/03/16 09:28:02;;;;;;;5.25;3.40;;;;;;;;;;5007161;28;20599;-72
2022/03/16 09:30:28;;;;;;;9.10;4.10;;;;;;;;;;5006609;28;20042;-72
2022/03/16 09:32:57;;;;;;;9.00;4.20;;;;;;;;;;5004952;28;20038;-72
2022/03/16 09:35:23;;;;;;;5.93;3.88;;;;;;;;;;5005039;28;20495;-72
2022/03/16 09:37:50;;;;;;;5.53;3.97;;;;;;;;;;5008102;28;20044;-72
2022/03/16 09:40:17;;;;;;;6.65;3.50;;;;;;;;;;5005743;28;20383;-72
2022/03/16 09:42:43;;;;;;;4.90;3.38;;;;;;;;;;5004043;28;20037;-72
2022/03/16 09:45:13;;;;;;;5.35;3.45;;;;;;;;;;5005470;28;20026;-71
2022/03/16 09:47:39;;;;;;;6.38;4.20;;;;;;;;;;5008461;28;20126;-72
2022/03/16 09:50:05;;;;;;;6.15;3.33;;;;;;;;;;4988016;28;20022;-72
2022/03/16 09:52:31;;;;;;;8.85;4.22;;;;;;;;;;4990046;28;20246;-71
2022/03/16 09:54:58;;;;;;;12.93;6.63;;;;;;;;;;5008154;28;20028;-71
2022/03/16 09:57:24;;;;;;;16.30;7.65;;;;;;;;;;4991178;28;20060;-71
2022/03/16 09:59:51;;;;;;;6.22;4.13;;;;;;;;;;5007914;28;20019;-71
2022/03/16 10:02:17;;;;;;;7.72;3.30;;;;;;;;;;5006148;28;20404;-72
2022/03/16 10:04:47;;;;;;;5.72;3.05;;;;;;;;;;5005867;28;20037;-71
2022/03/16 10:07:13;;;;;;;8.63;3.72;;;;;;;;;;5008320;28;20128;-71
2022/03/16 10:15:13;;;;;;;5.43;3.55;;;;;;;;;;5006341;28;20076;-71
2022/03/16 10:17:49;;;;;;;9.77;3.38;;;;;;;;;;5006463;28;20515;-71
2022/03/16 10:20:21;;;;;;;5.35;2.78;;;;;;;;;;5010062;28;20038;-71
2022/03/16 10:22:55;;;;;;;6.80;3.20;;;;;;;;;;4988653;28;20057;-72
2022/03/16 10:25:21;;;;;;;6.70;2.80;;;;;;;;;;5004909;28;20029;-71
2022/03/16 10:27:47;;;;;;;5.90;3.08;;;;;;;;;;5004085;28;20030;-71
2022/03/16 10:30:14;;;;;;;5.55;2.85;;;;;;;;;;5004816;28;20495;-72
2022/03/16 10:32:40;;;;;;;6.32;2.70;;;;;;;;;;5005989;28;20385;-71
2022/03/16 10:35:07;;;;;;;4.68;2.72;;;;;;;;;;5004301;28;20486;-72
2022/03/16 10:37:37;;;;;;;6.45;2.63;;;;;;;;;;5004979;28;20026;-70
2022/03/16 10:40:15;;;;;;;5.68;2.33;;;;;;;;;;5001602;28;20107;-71
2022/03/16 10:48:22;;;;;;;5.10;3.15;;;;;;;;;;5002362;28;20108;-71
2022/03/16 10:50:49;;;;;;;14.85;3.55;;;;;;;;;;5003330;28;20029;-72
2022/03/16 10:53:16;;;;;;;4.85;2.58;;;;;;;;;;5005341;28;20030;-71
2022/03/16 10:55:43;;;;;;;9.43;3.00;;;;;;;;;;4989626;28;20053;-71
2022/03/16 10:58:10;;;;;;;4.45;2.70;;;;;;;;;;5003941;28;20040;-72
2022/03/16 11:00:37;;;;;;;6.45;2.72;;;;;;;;;;5005889;28;20034;-72
2022/03/16 11:03:06;;;;;;;7.85;3.08;;;;;;;;;;5004553;28;20042;-72
2022/03/16 11:05:36;;;;;;;5.50;2.78;;;;;;;;;;4993333;28;20610;-71
2022/03/16 11:08:06;;;;;;;4.53;2.33;;;;;;;;;;5003559;28;20462;-71
2022/03/16 11:10:32;;;;;;;5.10;1.83;;;;;;;;;;5004295;28;20033;-71
2022/03/16 11:15:44;;;;;;;4.38;2.80;;;;;;;;;;5002901;28;20133;-71
2022/03/16 11:18:10;;;;;;;8.57;2.50;;;;;;;;;;5000749;28;20018;-72
2022/03/16 11:20:37;;;;;;;5.53;3.25;;;;;;;;;;5004641;28;20097;-72
2022/03/16 11:26:07;;;;;;;4.68;2.30;;;;;;;;;;5010910;28;20406;-71
2022/03/16 11:28:50;;;;;;;4.72;1.90;;;;;;;;;;5003594;28;20490;-72
2022/03/16 11:31:16;;;;;;;3.78;2.10;;;;;;;;;;5000795;28;20026;-72
2022/03/16 11:33:48;;;;;;;5.90;2.42;;;;;;;;;;4981137;28;20396;-73
2022/03/16 11:36:28;;;;;;;3.00;1.80;;;;;;;;;;5005104;28;20033;-72
2022/03/16 11:38:54;;;;;;;6.05;2.00;;;;;;;;;;5005187;28;20050;-72
2022/03/16 11:41:30;;;;;;;5.68;2.15;;;;;;;;;;4989550;28;20038;-72
2022/03/16 11:44:15;;;;;;;4.45;2.22;;;;;;;;;;5002039;28;20046;-72
2022/03/16 11:46:43;;;;;;;3.72;2.00;;;;;;;;;;5008829;28;20034;-72
2022/03/16 11:49:10;;;;;;;10.43;2.03;;;;;;;;;;5006494;28;20050;-73
2022/03/16 11:51:39;;;;;;;4.72;3.28;;;;;;;;;;5004716;28;20061;-72
2022/03/16 11:54:06;;;;;;;3.78;1.90;;;;;;;;;;5007977;28;20187;-73
2022/03/16 11:56:39;;;;;;;6.80;2.45;;;;;;;;;;5005284;28;20357;-72
2022/03/16 11:59:16;;;;;;;5.15;2.20;;;;;;;;;;4992332;28;20084;-72
2022/03/16 12:01:48;;;;;;;4.75;2.80;;;;;;;;;;5007529;28;20092;-72
2022/03/16 12:04:15;;;;;;;2.90;2.30;;;;;;;;;;5003689;28;20611;-72
2022/03/16 12:07:09;;;;;;;8.30;3.45;;;;;;;;;;5003451;28;20042;-72
2022/03/16 12:09:41;;;;;;;5.47;2.53;;;;;;;;;;5001038;28;20046;-72
2022/03/16 12:15:09;;;;;;;4.63;2.13;;;;;;;;;;5003953;28;20088;-72
2022/03/16 12:17:37;;;;;;;10.73;3.85;;;;;;;;;;5002672;28;20024;-72
2022/03/16 12:20:10;;;;;;;6.53;2.78;;;;;;;;;;5000625;28;20515;-72
2022/03/16 12:22:37;;;;;;;4.35;2.50;;;;;;;;;;5005490;28;20026;-72
2022/03/16 12:25:22;;;;;;;6.70;3.58;;;;;;;;;;5004242;28;20068;-72
2022/03/16 12:30:41;;;;;;;7.07;2.20;;;;;;;;;;5002425;28;20067;-72
2022/03/16 12:33:10;;;;;;;4.75;2.55;;;;;;;;;;4995684;28;20673;-73
2022/03/16 12:35:37;;;;;;;3.33;2.42;;;;;;;;;;5008976;28;20025;-73
2022/03/16 12:38:03;;;;;;;4.22;2.33;;;;;;;;;;5008168;28;20030;-73
2022/03/16 12:40:29;;;;;;;4.30;2.72;;;;;;;;;;4988108;28;20029;-73
2022/03/16 12:42:56;;;;;;;4.38;2.05;;;;;;;;;;5005757;28;20034;-72
2022/03/16 12:45:28;;;;;;;7.38;2.30;;;;;;;;;;5004704;28;20493;-72
2022/03/16 12:48:08;;;;;;;7.05;2.10;;;;;;;;;;5004224;28;20568;-72
2022/03/16 12:50:34;;;;;;;3.80;2.10;;;;;;;;;;4988162;28;20038;-72
2022/03/16 12:53:01;;;;;;;4.78;2.15;;;;;;;;;;5007577;28;20113;-71
2022/03/16 12:55:27;;;;;;;5.30;2.00;;;;;;;;;;5006542;28;20033;-71
2022/03/16 12:57:57;;;;;;;5.07;2.15;;;;;;;;;;5006225;28;20068;-72
2022/03/16 13:00:38;;;;;;;3.22;1.63;;;;;;;;;;5007945;28;20034;-72
2022/03/16 13:03:17;;;;;;;6.88;2.50;;;;;;;;;;5003734;28;20022;-73
2022/03/16 13:05:43;;;;;;;4.45;2.13;;;;;;;;;;4991963;28;20074;-74
2022/03/16 13:08:10;;;;;;;2.95;1.90;;;;;;;;;;5003946;28;20491;-73
2022/03/16 13:11:14;;;;;;;7.13;2.65;;;;;;;;;;5005974;28;20559;-73
2022/03/16 13:13:22;;;;;;;5.25;2.45;;;;;;;;;;5001726;28;20034;-73
2022/03/16 13:15:52;;;;;;;4.53;2.00;;;;;;;;;;5007282;28;20022;-73
2022/03/16 13:18:30;;;;;;;4.70;2.00;;;;;;;;;;4997972;28;20030;-73
2022/03/16 13:20:56;;;;;;;5.90;2.17;;;;;;;;;;4998938;28;20503;-73
2022/03/16 13:23:31;;;;;;;2.22;1.70;;;;;;;;;;4980166;28;20399;-72
2022/03/16 13:26:10;;;;;;;5.57;2.35;;;;;;;;;;4997133;28;20040;-73
2022/03/16 13:28:36;;;;;;;3.35;1.80;;;;;;;;;;4995829;28;20030;-72
2022/03/16 13:31:02;;;;;;;4.30;2.10;;;;;;;;;;5000550;28;20113;-73
2022/03/16 13:33:28;;;;;;;5.22;2.58;;;;;;;;;;5000721;28;20029;-73
2022/03/16 13:36:10;;;;;;;2.90;1.90;;;;;;;;;;5003092;28;20612;-74
2022/03/16 13:38:37;;;;;;;3.45;1.88;;;;;;;;;;4999426;28;21060;-73
2022/03/16 13:41:15;;;;;;;7.47;2.25;;;;;;;;;;4996292;28;20022;-73
2022/03/16 13:43:42;;;;;;;5.57;2.63;;;;;;;;;;4995254;28;20037;-73
2022/03/16 13:46:13;;;;;;;3.65;1.70;;;;;;;;;;5003440;28;20065;-73
2022/03/16 13:48:39;;;;;;;5.72;2.10;;;;;;;;;;4997000;28;20033;-73
2022/03/16 13:51:06;;;;;;;5.53;2.55;;;;;;;;;;4978779;28;20088;-73
2022/03/16 13:53:41;;;;;;;4.13;2.42;;;;;;;;;;4998998;28;20024;-73
2022/03/16 13:56:13;;;;;;;5.53;3.25;;;;;;;;;;4997853;28;20392;-73
2022/03/16 13:58:40;;;;;;;4.45;3.17;;;;;;;;;;4994811;28;20374;-73
2022/03/16 14:01:06;;;;;;;7.20;2.70;;;;;;;;;;4991991;28;20026;-75
2022/03/16 14:03:33;;;;;;;4.60;2.20;;;;;;;;;;5004267;28;20339;-73
2022/03/16 14:06:00;;;;;;;4.53;3.03;;;;;;;;;;5006368;28;20109;-74
2022/03/16 14:08:26;;;;;;;6.97;3.15;;;;;;;;;;4998530;28;21040;-74
2022/03/16 14:10:54;;;;;;;5.85;3.38;;;;;;;;;;5006216;28;20451;-74
2022/03/16 14:13:23;;;;;;;4.43;3.10;;;;;;;;;;5006838;28;20029;-74
2022/03/16 14:15:49;;;;;;;5.15;2.50;;;;;;;;;;4988821;28;20171;-73
2022/03/16 14:18:16;;;;;;;3.90;2.70;;;;;;;;;;5005294;28;20512;-74
2022/03/16 14:20:44;;;;;;;4.72;2.50;;;;;;;;;;5004806;28;20393;-73
2022/03/16 14:23:11;;;;;;;6.03;2.95;;;;;;;;;;5004045;28;20026;-74
2022/03/16 14:25:37;;;;;;;5.03;2.55;;;;;;;;;;5006580;28;20025;-74
2022/03/16 14:28:04;;;;;;;5.68;2.00;;;;;;;;;;5004596;28;20083;-74
2022/03/16 14:30:32;;;;;;;8.65;2.50;;;;;;;;;;5006268;28;20059;-74
2022/03/16 14:33:03;;;;;;;4.25;2.10;;;;;;;;;;5006492;28;21037;-74
2022/03/16 14:35:30;;;;;;;3.25;2.22;;;;;;;;;;5005237;28;20026;-74
2022/03/16 14:37:57;;;;;;;5.53;1.95;;;;;;;;;;5005200;28;20026;-74
2022/03/16 14:40:24;;;;;;;3.83;2.28;;;;;;;;;;4999787;28;20025;-74
2022/03/16 14:42:54;;;;;;;5.93;2.97;;;;;;;;;;4998917;28;20029;-74
2022/03/16 14:45:23;;;;;;;6.25;2.60;;;;;;;;;;4993693;28;20022;-75
2022/03/16 14:47:49;;;;;;;9.98;2.40;;;;;;;;;;5004037;28;20181;-74
2022/03/16 14:50:16;;;;;;;3.63;1.85;;;;;;;;;;5002013;28;20544;-74
2022/03/16 14:52:43;;;;;;;6.07;2.40;;;;;;;;;;5008534;28;20076;-74
2022/03/16 14:55:09;;;;;;;5.68;2.78;;;;;;;;;;5004724;28;20030;-73
2022/03/16 14:57:35;;;;;;;8.13;4.13;;;;;;;;;;4992371;28;20030;-73
2022/03/16 15:00:01;;;;;;;6.63;2.40;;;;;;;;;;5006359;28;20123;-73
2022/03/16 15:02:27;;;;;;;5.13;2.40;;;;;;;;;;4998708;28;20389;-74
2022/03/16 15:04:54;;;;;;;5.72;2.40;;;;;;;;;;5002217;28;20034;-73